Constitution — KCOJ — position and weather

sailwx.info

Track history (hours):
 
Tides and Currents Weather Stations Pressure Air Temp Water Temp Dewpoint Dewpoint Depression Visibility Wind Speed Wind Dir Waves Ship Positions

Constitution

Owner: Sea-Vista Newbuild III LLC, Fort Lauderdale, FL. More information available from US FCC via Universal Licensing System and Coast Guard Vessel Documentation Center.

Last reported at 2018-Feb-17 08:12 UTC. Time now 2018-Feb-18 06:42 UTC.
Position N 28°09' W 094°25'.

Length 187 m; draft 12.1 m.

Type: Tanker. MMSI: 338879000.

Date/timePositionNaut miles runAvg speedWind from/ knotsBaromVisibWave heightAir tempDewpointWater temp
2018-Feb-17 08:12N 28°09' W 094°25'313.7
2018-Feb-17 08:00N 28°11' W 094°25'3713.9
2018-Feb-17 05:19N 28°48' W 094°25'1913.8
2018-Feb-17 03:58N 29°07' W 094°26'713.4
2018-Feb-17 03:26N 29°12' W 094°32'612.3
2018-Feb-17 02:56N 29°17' W 094°36'510.7
2018-Feb-17 02:30N 29°20' W 094°40'611.4
2018-Feb-17 02:00N 29°21' W 094°47'510.8
2018-Feb-17 01:30N 29°25' W 094°50'510.5
2018-Feb-17 01:01N 29°30' W 094°52'610.7
2018-Feb-17 00:29N 29°35' W 094°56'510.6
2018-Feb-17 00:01N 29°39' W 094°58'4 8.6
2018-Feb-16 23:30N 29°43' W 095°01'3 6.6
2018-Feb-16 23:01N 29°45' W 095°04'3 5.4
2018-Feb-16 22:30N 29°44' W 095°07'3 5.7
2018-Feb-16 22:01N 29°45' W 095°10'2 3.3
2018-Feb-16 21:29N 29°45' W 095°12'0 0.0
2018-Feb-16 21:00N 29°45' W 095°12'  
2018-Feb-12 17:53N 29°45' W 095°11'3 6.1
2018-Feb-12 17:26N 29°44' W 095°08'3 6.7
2018-Feb-12 16:56N 29°46' W 095°04'4 7.5
2018-Feb-12 16:27N 29°43' W 095°01'4 9.0
2018-Feb-12 16:00N 29°40' W 094°58'611.3
2018-Feb-12 15:30N 29°35' W 094°56'612.2
2018-Feb-12 15:00N 29°30' W 094°52'611.9
2018-Feb-12 14:30N 29°24' W 094°49'19 1.3
2018-Feb-12 00:13N 29°11' W 094°33'0 0.0
2018-Feb-11 23:58N 29°11' W 094°33'0 0.0
2018-Feb-11 15:37N 29°11' W 094°33'0 0.0
2018-Feb-11 15:22N 29°11' W 094°33'0 0.0
2018-Feb-10 14:43N 29°11' W 094°33'0 0.0
2018-Feb-10 10:22N 29°11' W 094°33'0 0.0
2018-Feb-10 09:58N 29°11' W 094°33'0 0.0
2018-Feb-10 09:28N 29°11' W 094°33'0 0.0
2018-Feb-10 08:46N 29°11' W 094°33'0 0.0
2018-Feb-10 07:52N 29°11' W 094°33'  
Track history (hours):
 
Tides and Currents Weather Stations Pressure Air Temp Water Temp Dewpoint Dewpoint Depression Visibility Wind Speed Wind Dir Waves Ship Positions

Constitution

Owner: Sea-Vista Newbuild III LLC, Fort Lauderdale, FL. More information available from US FCC via Universal Licensing System and Coast Guard Vessel Documentation Center.

Last reported at 2018-Feb-17 08:12 UTC. Time now 2018-Feb-18 06:42 UTC.
Position N 28°09' W 094°25'.

Length 187 m; draft 12.1 m.

Type: Tanker. MMSI: 338879000.

Date/timePositionNaut miles runAvg speedWind from/ knotsBaromVisibWave heightAir tempDewpointWater temp
2018-Feb-17 08:12N 28°09' W 094°25'313.7
2018-Feb-17 08:00N 28°11' W 094°25'3713.9
2018-Feb-17 05:19N 28°48' W 094°25'1913.8
2018-Feb-17 03:58N 29°07' W 094°26'713.4
2018-Feb-17 03:26N 29°12' W 094°32'612.3
2018-Feb-17 02:56N 29°17' W 094°36'510.7
2018-Feb-17 02:30N 29°20' W 094°40'611.4
2018-Feb-17 02:00N 29°21' W 094°47'510.8
2018-Feb-17 01:30N 29°25' W 094°50'510.5
2018-Feb-17 01:01N 29°30' W 094°52'610.7
2018-Feb-17 00:29N 29°35' W 094°56'510.6
2018-Feb-17 00:01N 29°39' W 094°58'4 8.6
2018-Feb-16 23:30N 29°43' W 095°01'3 6.6
2018-Feb-16 23:01N 29°45' W 095°04'3 5.4
2018-Feb-16 22:30N 29°44' W 095°07'3 5.7
2018-Feb-16 22:01N 29°45' W 095°10'2 3.3
2018-Feb-16 21:29N 29°45' W 095°12'0 0.0
2018-Feb-16 21:00N 29°45' W 095°12'  
2018-Feb-12 17:53N 29°45' W 095°11'3 6.1
2018-Feb-12 17:26N 29°44' W 095°08'3 6.7
2018-Feb-12 16:56N 29°46' W 095°04'4 7.5
2018-Feb-12 16:27N 29°43' W 095°01'4 9.0
2018-Feb-12 16:00N 29°40' W 094°58'611.3
2018-Feb-12 15:30N 29°35' W 094°56'612.2
2018-Feb-12 15:00N 29°30' W 094°52'611.9
2018-Feb-12 14:30N 29°24' W 094°49'19 1.3
2018-Feb-12 00:13N 29°11' W 094°33'0 0.0
2018-Feb-11 23:58N 29°11' W 094°33'0 0.0
2018-Feb-11 15:37N 29°11' W 094°33'0 0.0
2018-Feb-11 15:22N 29°11' W 094°33'0 0.0
2018-Feb-10 14:43N 29°11' W 094°33'0 0.0
2018-Feb-10 10:22N 29°11' W 094°33'0 0.0
2018-Feb-10 09:58N 29°11' W 094°33'0 0.0
2018-Feb-10 09:28N 29°11' W 094°33'0 0.0
2018-Feb-10 08:46N 29°11' W 094°33'0 0.0
2018-Feb-10 07:52N 29°11' W 094°33'  

Dump ship's entire track history